createdAt,value
2023-12-30T00:00:38.823Z,3.70
2023-12-30T00:03:07.165Z,3.70
2023-12-30T00:05:35.483Z,3.60
2023-12-30T00:08:03.629Z,3.60
2023-12-30T00:10:31.898Z,3.60
2023-12-30T00:13:00.536Z,3.50
2023-12-30T00:15:28.870Z,3.50
2023-12-30T00:17:58.589Z,3.50
2023-12-30T00:20:27.040Z,3.50
2023-12-30T00:22:55.330Z,3.40
2023-12-30T00:25:24.266Z,3.40
2023-12-30T00:27:53.127Z,3.30
2023-12-30T00:30:21.330Z,3.30
2023-12-30T00:32:49.635Z,3.30
2023-12-30T00:35:19.400Z,3.30
2023-12-30T00:37:47.494Z,3.20
2023-12-30T00:40:21.438Z,3.20
2023-12-30T00:42:54.802Z,3.20
2023-12-30T00:45:23.322Z,3.10
2023-12-30T00:47:51.608Z,3.10
2023-12-30T00:50:21.107Z,3.10
2023-12-30T00:52:49.602Z,3.00
2023-12-30T00:55:18.030Z,3.00
2023-12-30T00:57:46.268Z,3.00
2023-12-30T01:00:16.147Z,3.00
2023-12-30T01:02:44.472Z,3.00
2023-12-30T01:05:13.138Z,2.90
2023-12-30T01:07:42.685Z,2.90
2023-12-30T01:10:11.151Z,2.90
2023-12-30T01:12:39.288Z,2.90
2023-12-30T01:15:08.479Z,2.90
2023-12-30T01:17:36.863Z,2.90
2023-12-30T01:20:07.272Z,2.90
2023-12-30T01:22:36.416Z,2.90
2023-12-30T01:25:07.594Z,2.90
2023-12-30T01:27:36.440Z,2.80
2023-12-30T01:30:04.913Z,2.80
2023-12-30T01:32:33.075Z,2.70
2023-12-30T01:35:01.266Z,2.70
2023-12-30T01:37:29.481Z,2.70
2023-12-30T01:39:57.573Z,2.60
2023-12-30T01:42:27.095Z,2.60
2023-12-30T01:44:55.182Z,2.60
2023-12-30T01:47:23.596Z,2.50
2023-12-30T01:49:51.847Z,2.50
2023-12-30T01:52:20.874Z,2.50
2023-12-30T01:54:49.096Z,2.50
2023-12-30T01:57:17.529Z,2.50
2023-12-30T01:59:49.012Z,2.50
2023-12-30T02:02:17.380Z,2.50
2023-12-30T02:04:47.403Z,2.50
2023-12-30T02:07:15.540Z,2.50
2023-12-30T02:09:43.822Z,2.50
2023-12-30T02:12:12.426Z,2.50
2023-12-30T02:14:40.592Z,2.50
2023-12-30T02:17:10.162Z,2.50
2023-12-30T02:19:38.304Z,2.50
2023-12-30T02:22:06.480Z,2.50
2023-12-30T02:24:36.111Z,2.50
2023-12-30T02:27:04.115Z,2.50
2023-12-30T02:29:32.137Z,2.40
2023-12-30T02:32:00.294Z,2.40
2023-12-30T02:34:28.782Z,2.40
2023-12-30T02:36:57.191Z,2.40
2023-12-30T02:39:25.481Z,2.40
2023-12-30T02:41:55.010Z,2.40
2023-12-30T02:44:23.113Z,2.50
2023-12-30T02:46:51.183Z,2.50
2023-12-30T02:49:21.984Z,2.50
2023-12-30T02:51:50.111Z,2.60
2023-12-30T02:54:18.306Z,2.60
2023-12-30T02:56:46.454Z,2.60
2023-12-30T02:59:16.443Z,2.60
2023-12-30T03:01:44.648Z,2.60
2023-12-30T03:04:12.864Z,2.60
2023-12-30T03:06:41.035Z,2.60
2023-12-30T03:09:09.156Z,2.60
2023-12-30T03:11:37.213Z,2.50
2023-12-30T03:14:05.347Z,2.50
2023-12-30T03:16:35.030Z,2.60
2023-12-30T03:19:04.440Z,2.60
2023-12-30T03:21:32.572Z,2.60
2023-12-30T03:24:00.679Z,2.60
2023-12-30T03:26:28.838Z,2.60
2023-12-30T03:28:56.920Z,2.60
2023-12-30T03:31:26.959Z,2.60
2023-12-30T03:33:57.751Z,2.60
2023-12-30T03:36:26.132Z,2.60
2023-12-30T03:38:55.362Z,2.60
2023-12-30T03:41:23.720Z,2.60
2023-12-30T03:43:52.295Z,2.70
2023-12-30T03:46:20.451Z,2.70
2023-12-30T03:48:48.837Z,2.80
2023-12-30T03:51:18.471Z,2.80
2023-12-30T03:53:46.762Z,2.90
2023-12-30T03:56:14.965Z,3.00
2023-12-30T03:58:43.108Z,3.00
2023-12-30T04:01:11.352Z,3.10
2023-12-30T04:03:39.569Z,3.10
2023-12-30T04:06:07.872Z,3.10
2023-12-30T04:08:37.701Z,3.20
2023-12-30T04:11:06.159Z,3.20
2023-12-30T04:13:34.242Z,3.20
2023-12-30T04:16:03.314Z,3.30
2023-12-30T04:18:31.439Z,3.30
2023-12-30T04:20:59.677Z,3.30
2023-12-30T04:23:28.048Z,3.30
2023-12-30T04:25:57.734Z,3.30
2023-12-30T04:28:25.872Z,3.40
2023-12-30T04:30:54.388Z,3.40
2023-12-30T04:33:22.721Z,3.40
2023-12-30T04:35:50.949Z,3.50
2023-12-30T04:38:21.031Z,3.40
2023-12-30T04:40:51.469Z,3.50
2023-12-30T04:43:21.036Z,3.50
2023-12-30T04:45:49.333Z,3.50
2023-12-30T04:48:17.583Z,3.60
2023-12-30T04:50:46.427Z,3.60
2023-12-30T04:53:14.839Z,3.60
2023-12-30T04:55:43.680Z,3.70
2023-12-30T04:58:11.885Z,3.70
2023-12-30T05:00:41.391Z,3.80
2023-12-30T05:03:09.576Z,3.80
2023-12-30T05:05:38.133Z,3.80
2023-12-30T05:08:07.092Z,3.90
2023-12-30T05:10:35.713Z,3.90
2023-12-30T05:13:04.535Z,3.90
2023-12-30T05:15:33.252Z,3.90
2023-12-30T05:18:03.085Z,3.90
2023-12-30T05:20:31.368Z,3.90
2023-12-30T05:23:01.716Z,3.90
2023-12-30T05:25:30.201Z,3.90
2023-12-30T05:27:58.379Z,3.90
2023-12-30T05:30:26.675Z,3.90
2023-12-30T05:32:54.822Z,3.90
2023-12-30T05:35:24.394Z,4.00
2023-12-30T05:37:52.458Z,4.00
2023-12-30T05:40:20.993Z,4.10
2023-12-30T05:42:49.115Z,4.10
2023-12-30T05:45:17.172Z,4.10
2023-12-30T05:47:45.750Z,4.10
2023-12-30T05:50:14.445Z,4.10
2023-12-30T05:52:43.879Z,4.00
2023-12-30T05:55:11.965Z,4.00
2023-12-30T05:57:40.141Z,4.00
2023-12-30T06:00:09.520Z,4.00
2023-12-30T06:02:43.440Z,4.00
2023-12-30T06:05:11.522Z,4.00
2023-12-30T06:07:40.672Z,4.10
2023-12-30T06:10:10.938Z,4.20
2023-12-30T06:12:39.077Z,4.40
2023-12-30T06:15:08.357Z,4.50
2023-12-30T06:17:36.625Z,4.70
2023-12-30T06:20:05.900Z,4.80
2023-12-30T06:22:34.323Z,4.90
2023-12-30T06:25:02.706Z,5.00
2023-12-30T06:27:32.177Z,5.10
2023-12-30T06:30:00.478Z,5.20
2023-12-30T06:32:28.629Z,5.20
2023-12-30T06:34:56.852Z,5.30
2023-12-30T06:37:25.045Z,5.40
2023-12-30T06:39:53.145Z,5.40
2023-12-30T06:42:21.259Z,5.50
2023-12-30T06:44:50.732Z,5.50
2023-12-30T06:47:18.863Z,5.60
2023-12-30T06:49:47.103Z,5.60
2023-12-30T06:52:15.793Z,5.70
2023-12-30T06:54:44.052Z,5.70
2023-12-30T06:57:12.085Z,5.80
2023-12-30T06:59:40.120Z,5.80
2023-12-30T07:02:10.414Z,5.90
2023-12-30T07:04:38.606Z,5.90
2023-12-30T07:07:06.786Z,6.00
2023-12-30T07:09:34.973Z,6.00
2023-12-30T07:12:03.040Z,6.00
2023-12-30T07:14:35.289Z,6.00
2023-12-30T07:17:04.044Z,6.00
2023-12-30T07:19:33.537Z,6.10
2023-12-30T07:22:01.773Z,6.10
2023-12-30T07:24:29.817Z,6.10
2023-12-30T07:26:59.434Z,6.10
2023-12-30T07:29:27.760Z,6.10
2023-12-30T07:31:56.022Z,6.10
2023-12-30T07:34:24.233Z,6.10
2023-12-30T07:36:53.789Z,6.10
2023-12-30T07:39:22.976Z,6.10
2023-12-30T07:41:51.620Z,6.10
2023-12-30T07:44:19.975Z,6.10
2023-12-30T07:46:48.234Z,6.10
2023-12-30T07:49:18.690Z,6.20
2023-12-30T07:51:46.930Z,6.10
2023-12-30T07:54:16.962Z,6.20
2023-12-30T07:56:45.302Z,6.20
2023-12-30T07:59:14.446Z,6.20
2023-12-30T08:01:44.626Z,6.30
2023-12-30T08:04:14.410Z,6.30
2023-12-30T08:06:43.023Z,6.30
2023-12-30T08:09:12.489Z,6.40
2023-12-30T08:11:50.408Z,6.40
2023-12-30T08:14:27.448Z,6.50
2023-12-30T08:16:55.583Z,6.50
2023-12-30T08:19:24.226Z,6.60
2023-12-30T08:21:52.558Z,6.60
2023-12-30T08:24:21.706Z,6.70
2023-12-30T08:26:51.385Z,6.80
2023-12-30T08:29:19.859Z,6.90
2023-12-30T08:31:48.182Z,6.90
2023-12-30T08:34:17.627Z,6.90
2023-12-30T08:36:46.257Z,7.00
2023-12-30T08:39:14.545Z,7.00
2023-12-30T08:41:43.320Z,7.10
2023-12-30T08:44:13.029Z,7.10
2023-12-30T08:46:41.198Z,7.20
2023-12-30T08:49:11.080Z,7.20
2023-12-30T08:51:39.687Z,7.30
2023-12-30T08:54:07.875Z,7.30
2023-12-30T08:56:36.119Z,7.30
2023-12-30T08:59:04.210Z,7.40
2023-12-30T09:01:33.742Z,7.40
2023-12-30T09:04:02.065Z,7.50
2023-12-30T09:06:30.814Z,7.50
2023-12-30T09:08:58.955Z,7.60
2023-12-30T09:11:27.111Z,7.70
2023-12-30T09:13:55.937Z,7.70
2023-12-30T09:16:24.020Z,7.80
2023-12-30T09:18:53.744Z,7.90
2023-12-30T09:21:21.977Z,8.00
2023-12-30T09:23:50.218Z,8.00
2023-12-30T09:26:18.542Z,8.10
2023-12-30T09:28:46.606Z,8.20
2023-12-30T09:31:14.832Z,8.30
2023-12-30T09:33:43.219Z,8.50
2023-12-30T09:36:12.652Z,8.60
2023-12-30T09:38:40.758Z,8.60
2023-12-30T09:41:08.876Z,8.60
2023-12-30T09:43:37.604Z,8.60
2023-12-30T09:46:06.549Z,8.60
2023-12-30T09:48:37.609Z,8.60
2023-12-30T09:51:06.521Z,8.70
2023-12-30T09:53:35.994Z,8.70
2023-12-30T09:56:04.953Z,8.70
2023-12-30T09:58:33.729Z,8.70
2023-12-30T10:01:02.128Z,8.70
2023-12-30T10:03:31.281Z,8.70
2023-12-30T10:06:01.471Z,8.70
2023-12-30T10:08:30.908Z,8.80
2023-12-30T10:11:00.400Z,8.80
2023-12-30T10:13:28.769Z,8.80
2023-12-30T10:15:59.926Z,8.90
2023-12-30T10:18:28.314Z,8.90
2023-12-30T10:20:56.856Z,9.00
2023-12-30T10:23:25.353Z,9.00
2023-12-30T10:25:53.893Z,9.00
2023-12-30T10:28:23.689Z,9.00
2023-12-30T10:31:02.426Z,9.10
2023-12-30T10:33:31.362Z,9.10
2023-12-30T10:35:59.617Z,9.20
2023-12-30T10:38:28.587Z,9.20
2023-12-30T10:40:56.825Z,9.30
2023-12-30T10:43:26.295Z,9.30
2023-12-30T10:45:59.640Z,9.30
2023-12-30T10:48:32.875Z,9.30
2023-12-30T10:51:02.148Z,9.40
2023-12-30T10:53:33.524Z,9.50
2023-12-30T10:56:02.944Z,9.50
2023-12-30T10:58:36.487Z,9.60
2023-12-30T11:01:07.020Z,9.70
2023-12-30T11:03:37.253Z,9.70
2023-12-30T11:06:14.440Z,9.70
2023-12-30T11:08:45.171Z,9.80
2023-12-30T11:11:15.918Z,9.90
2023-12-30T11:13:46.906Z,9.90
2023-12-30T11:16:16.666Z,9.90
2023-12-30T11:18:50.174Z,10.00
2023-12-30T11:21:41.804Z,10.10
2023-12-30T11:24:11.388Z,10.20
2023-12-30T11:26:43.717Z,10.30
2023-12-30T11:29:16.478Z,10.30
2023-12-30T11:31:46.372Z,10.30
2023-12-30T11:34:16.375Z,10.30
2023-12-30T11:36:46.981Z,10.40
2023-12-30T11:39:25.780Z,10.40
2023-12-30T11:41:54.688Z,10.40
2023-12-30T11:44:25.133Z,10.40
2023-12-30T11:46:53.215Z,10.40
2023-12-30T11:49:22.442Z,10.40
2023-12-30T11:51:51.117Z,10.40
2023-12-30T11:54:19.376Z,10.50
2023-12-30T11:56:47.931Z,10.50
2023-12-30T11:59:16.191Z,10.60
2023-12-30T12:01:48.318Z,10.60
2023-12-30T12:04:16.973Z,10.60
2023-12-30T12:06:45.270Z,10.60
2023-12-30T12:09:13.895Z,10.50
2023-12-30T12:11:41.922Z,10.50
2023-12-30T12:14:11.673Z,10.50
2023-12-30T12:16:39.862Z,10.60
2023-12-30T12:19:09.842Z,10.60
2023-12-30T12:21:38.267Z,10.70
2023-12-30T12:24:07.251Z,10.70
2023-12-30T12:26:35.341Z,10.70
2023-12-30T12:29:05.850Z,10.80
2023-12-30T12:31:34.062Z,10.80
2023-12-30T12:34:22.845Z,10.80
2023-12-30T12:36:51.208Z,10.80
2023-12-30T12:39:19.797Z,10.80
2023-12-30T12:41:48.041Z,10.70
2023-12-30T12:44:16.131Z,10.70
2023-12-30T12:46:44.440Z,10.70
2023-12-30T12:49:15.051Z,10.60
2023-12-30T12:51:45.760Z,10.50
2023-12-30T12:54:13.906Z,10.40
2023-12-30T12:56:44.020Z,10.40
2023-12-30T12:59:12.318Z,10.30
2023-12-30T13:01:40.548Z,10.20
2023-12-30T13:04:08.911Z,10.30
2023-12-30T13:06:37.110Z,10.20
2023-12-30T13:09:25.438Z,10.20
2023-12-30T13:11:53.600Z,10.20
2023-12-30T13:14:27.042Z,10.10
2023-12-30T13:16:55.277Z,10.10
2023-12-30T13:19:23.581Z,10.10
2023-12-30T13:21:52.108Z,10.10
2023-12-30T13:24:22.037Z,10.00
2023-12-30T13:26:50.671Z,10.10
2023-12-30T13:29:19.462Z,10.10
2023-12-30T13:31:49.689Z,10.10
2023-12-30T13:34:18.189Z,10.10
2023-12-30T13:36:46.462Z,10.10
2023-12-30T13:39:15.583Z,10.20
2023-12-30T13:41:44.997Z,10.20
2023-12-30T13:44:15.814Z,10.30
2023-12-30T13:46:59.092Z,10.30
2023-12-30T13:49:44.727Z,10.30
2023-12-30T13:52:12.907Z,10.30
2023-12-30T13:54:43.161Z,10.30
2023-12-30T13:57:22.945Z,10.30
2023-12-30T13:59:52.995Z,10.30
2023-12-30T14:02:23.324Z,10.20
2023-12-30T14:04:55.600Z,10.20
2023-12-30T14:07:27.762Z,10.10
2023-12-30T14:10:00.910Z,10.10
2023-12-30T14:12:30.727Z,10.00
2023-12-30T14:15:06.975Z,10.00
2023-12-30T14:17:36.409Z,9.90
2023-12-30T14:20:05.949Z,9.90
2023-12-30T14:22:34.726Z,9.80
2023-12-30T14:25:05.573Z,9.80
2023-12-30T14:27:36.859Z,9.80
2023-12-30T14:30:07.366Z,9.70
2023-12-30T14:32:35.814Z,9.70
2023-12-30T14:35:05.922Z,9.70
2023-12-30T14:37:34.265Z,9.70
2023-12-30T14:40:02.497Z,9.70
2023-12-30T14:42:30.631Z,9.70
2023-12-30T14:45:00.050Z,9.70
2023-12-30T14:47:28.472Z,9.70
2023-12-30T14:49:56.548Z,9.70
2023-12-30T14:52:24.736Z,9.70
2023-12-30T14:55:01.672Z,9.70
2023-12-30T14:57:30.836Z,9.70
2023-12-30T15:00:00.468Z,9.70
2023-12-30T15:02:28.708Z,9.70
2023-12-30T15:04:56.760Z,9.60
2023-12-30T15:07:26.633Z,9.60
2023-12-30T15:09:55.172Z,9.60
2023-12-30T15:12:24.612Z,9.50
2023-12-30T15:14:52.815Z,9.50
2023-12-30T15:17:22.244Z,9.40
2023-12-30T15:19:51.534Z,9.30
2023-12-30T15:22:20.211Z,9.30
2023-12-30T15:24:48.559Z,9.30
2023-12-30T15:27:16.661Z,9.30
2023-12-30T15:29:44.789Z,9.30
2023-12-30T15:32:13.708Z,9.30
2023-12-30T15:34:43.514Z,9.30
2023-12-30T15:37:12.205Z,9.30
2023-12-30T15:39:40.705Z,9.20
2023-12-30T15:42:09.399Z,9.20
2023-12-30T15:44:38.860Z,9.20
2023-12-30T15:47:10.345Z,9.20
2023-12-30T15:49:41.298Z,9.10
2023-12-30T15:52:11.994Z,9.10
2023-12-30T15:54:40.633Z,9.00
2023-12-30T15:57:08.717Z,9.00
2023-12-30T15:59:36.998Z,9.00
2023-12-30T16:02:05.880Z,9.00
2023-12-30T16:04:34.080Z,9.00
2023-12-30T16:07:02.296Z,9.00
2023-12-30T16:09:31.775Z,8.90
2023-12-30T16:11:59.890Z,8.90
2023-12-30T16:14:27.956Z,8.90
2023-12-30T16:16:56.221Z,8.90
2023-12-30T16:19:24.364Z,8.80
2023-12-30T16:21:52.578Z,8.80
2023-12-30T16:24:20.146Z,8.70
2023-12-30T16:26:50.710Z,8.70
2023-12-30T16:29:19.041Z,8.60
2023-12-30T16:31:47.254Z,8.60
2023-12-30T16:34:15.679Z,8.50
2023-12-30T16:36:44.005Z,8.50
2023-12-30T16:39:12.144Z,8.40
2023-12-30T16:41:40.243Z,8.30
2023-12-30T16:44:09.670Z,8.20
2023-12-30T16:46:37.832Z,8.20
2023-12-30T16:49:06.265Z,8.10
2023-12-30T16:51:34.902Z,8.00
2023-12-30T16:54:03.606Z,8.00
2023-12-30T16:56:31.764Z,7.90
2023-12-30T16:59:00.899Z,7.90
2023-12-30T17:01:30.414Z,7.80
2023-12-30T17:03:58.648Z,7.70
2023-12-30T17:06:26.811Z,7.70
2023-12-30T17:08:56.220Z,7.60
2023-12-30T17:11:24.284Z,7.50
2023-12-30T17:13:54.227Z,7.40
2023-12-30T17:16:23.267Z,7.40
2023-12-30T17:18:52.871Z,7.30
2023-12-30T17:21:21.201Z,7.20
2023-12-30T17:23:49.250Z,7.10
2023-12-30T17:26:17.515Z,7.00
2023-12-30T17:28:45.622Z,7.00
2023-12-30T17:31:13.946Z,6.90
2023-12-30T17:33:42.067Z,6.90
2023-12-30T17:36:11.717Z,6.80
2023-12-30T17:38:41.342Z,6.70
2023-12-30T17:41:09.456Z,6.70
2023-12-30T17:43:37.644Z,6.60
2023-12-30T17:46:06.466Z,6.50
2023-12-30T17:48:34.511Z,6.50
2023-12-30T17:51:02.596Z,6.50
2023-12-30T20:01:42.347Z,4.30
2023-12-30T20:04:10.581Z,4.30
2023-12-30T20:06:40.837Z,4.20
2023-12-30T20:09:08.937Z,4.20
2023-12-30T20:11:36.979Z,4.20
2023-12-30T20:14:05.324Z,4.20
2023-12-30T20:16:33.449Z,4.20
2023-12-30T20:19:03.621Z,4.20
2023-12-30T20:21:32.363Z,4.10
2023-12-30T20:24:00.526Z,4.10
2023-12-30T20:26:28.675Z,4.10
2023-12-30T20:28:57.495Z,4.00
2023-12-30T20:31:25.605Z,4.00
2023-12-30T20:33:53.955Z,3.90
2023-12-30T20:36:24.552Z,3.90
2023-12-30T20:38:52.649Z,3.80
2023-12-30T20:41:20.797Z,3.80
2023-12-30T20:43:49.010Z,3.80
2023-12-30T20:46:17.486Z,3.80
2023-12-30T20:48:45.684Z,3.70
2023-12-30T20:51:13.973Z,3.70
2023-12-30T20:53:44.630Z,3.70
2023-12-30T20:56:12.690Z,3.70
2023-12-30T20:58:40.930Z,3.70
2023-12-30T21:01:09.345Z,3.60
2023-12-30T21:03:38.038Z,3.60
2023-12-30T21:06:06.523Z,3.60
2023-12-30T21:08:34.605Z,3.50
2023-12-30T21:11:04.139Z,3.60
2023-12-30T21:13:32.251Z,3.60
2023-12-30T21:16:00.491Z,3.50
2023-12-30T21:18:28.650Z,3.50
2023-12-30T21:20:56.923Z,3.50
2023-12-30T21:23:24.949Z,3.50
2023-12-30T21:25:53.104Z,3.50
2023-12-30T21:28:23.240Z,3.40
2023-12-30T21:30:51.680Z,3.40
2023-12-30T21:33:19.955Z,3.40
2023-12-30T21:35:48.056Z,3.30
2023-12-30T21:38:16.446Z,3.30
2023-12-30T21:40:45.074Z,3.20
2023-12-30T21:43:13.470Z,3.20
2023-12-30T21:45:42.866Z,3.20
2023-12-30T21:48:12.469Z,3.20
2023-12-30T21:50:40.904Z,3.20
2023-12-30T21:53:09.814Z,3.20
2023-12-30T21:55:38.218Z,3.20
2023-12-30T21:58:06.468Z,3.20
2023-12-30T22:00:35.213Z,3.10
2023-12-30T22:03:06.110Z,3.10
2023-12-30T22:05:36.212Z,3.10
2023-12-30T22:08:04.816Z,3.10
2023-12-30T22:10:32.970Z,3.10
2023-12-30T22:13:01.372Z,3.10
2023-12-30T22:15:29.724Z,3.00
2023-12-30T22:17:57.844Z,3.00
2023-12-30T22:20:27.609Z,3.00
2023-12-30T22:22:55.677Z,3.00
2023-12-30T22:25:23.805Z,3.00
2023-12-30T22:27:52.728Z,2.90
2023-12-30T22:30:21.014Z,2.90
2023-12-30T22:32:49.222Z,2.90
2023-12-30T22:35:17.379Z,2.90
2023-12-30T22:37:46.897Z,2.90
2023-12-30T22:40:15.344Z,2.90
2023-12-30T22:42:43.403Z,2.80
2023-12-30T22:45:11.606Z,2.80
2023-12-30T22:47:39.978Z,2.80
2023-12-30T22:50:09.368Z,2.80
2023-12-30T22:52:38.512Z,2.70
2023-12-30T22:55:08.908Z,2.70
2023-12-30T22:57:37.338Z,2.70
2023-12-30T23:00:11.158Z,2.70
2023-12-30T23:02:39.734Z,2.70
2023-12-30T23:05:09.659Z,2.70
2023-12-30T23:07:37.971Z,2.70
2023-12-30T23:10:10.069Z,2.70
2023-12-30T23:12:39.458Z,2.60
2023-12-30T23:15:08.392Z,2.60
2023-12-30T23:17:36.758Z,2.60
2023-12-30T23:20:09.583Z,2.50
2023-12-30T23:22:37.907Z,2.50
2023-12-30T23:25:08.341Z,2.50
2023-12-30T23:27:36.547Z,2.50
2023-12-30T23:30:05.771Z,2.40
2023-12-30T23:32:35.297Z,2.40
2023-12-30T23:35:05.344Z,2.40
2023-12-30T23:37:34.058Z,2.30
2023-12-30T23:40:04.827Z,2.30
2023-12-30T23:42:34.273Z,2.30
2023-12-30T23:45:03.109Z,2.30
2023-12-30T23:47:31.957Z,2.30
2023-12-30T23:50:00.114Z,2.30
2023-12-30T23:52:28.491Z,2.30
2023-12-30T23:54:56.848Z,2.30
2023-12-30T23:57:24.937Z,2.20
2023-12-30T23:59:54.518Z,2.20
